Time;durP1;ratioP1;P1;durP2;ratioP2;P2;SDS_P1;SDS_P2;PMS_P1;PMS_P2;Temp;Humidity;BMP_temperature;BMP_pressure;BME280_temperature;BME280_humidity;BME280_pressure;Samples;Min_cycle;Max_cycle;Signal;HPM_P1;HPM_P2
2022/04/11 00:01:57;;;;;;;;;;;;;;;4.42;61.04199;102057.8;;;;-82
2022/04/11 00:06:58;;;;;;;;;;;;;;;4.4;60.94043;102051;;;;-82
2022/04/11 00:11:29;;;;;;;3.7;1.4;;;;;;;;;;;;;-81
2022/04/11 00:11:57;;;;;;;;;;;;;;;4.39;61.02832;102048.5;;;;-80
2022/04/11 00:17:03;;;;;;;;;;;;;;;4.38;60.99316;102043.4;;;;-82
2022/04/11 00:21:59;;;;;;;;;;;;;;;4.37;60.99121;102036.5;;;;-84
2022/04/11 00:26:59;;;;;;;;;;;;;;;4.36;60.94531;102034.6;;;;-81
2022/04/11 00:31:56;;;;;;;;;;;;;;;4.37;61.10156;102031;;;;-80
2022/04/11 00:41:23;;;;;;;2.6;1.3;;;;;;;;;;;;;-82
2022/04/11 00:42:06;;;;;;;;;;;;;;;4.37;61.1123;102023.7;;;;-81
2022/04/11 00:46:59;;;;;;;;;;;;;;;4.4;61.24805;102021.9;;;;-82
2022/04/11 00:51:59;;;;;;;;;;;;;;;4.4;61.26953;102021.8;;;;-82
2022/04/11 00:56:57;;;;;;;;;;;;;;;4.38;61.25586;102024.8;;;;-81
2022/04/11 01:01:55;;;;;;;;;;;;;;;4.37;61.24414;102025.1;;;;-82
2022/04/11 01:06:57;;;;;;;;;;;;;;;4.38;61.125;102028.7;;;;-81
2022/04/11 01:11:23;;;;;;;2.1;1.1;;;;;;;;;;;;;-82
2022/04/11 01:11:56;;;;;;;;;;;;;;;4.33;61.04004;102025.7;;;;-82
2022/04/11 01:16:57;;;;;;;;;;;;;;;4.29;61.16602;102032.3;;;;-82
2022/04/11 01:21:58;;;;;;;;;;;;;;;4.27;61.25;102028;;;;-80
2022/04/11 01:26:59;;;;;;;;;;;;;;;4.27;61.61328;102031.7;;;;-81
2022/04/11 01:32:03;;;;;;;;;;;;;;;4.25;61.22754;102027.3;;;;-83
2022/04/11 01:36:57;;;;;;;;;;;;;;;4.26;61.34766;102021.9;;;;-81
2022/04/11 01:41:24;;;;;;;2.6;1;;;;;;;;;;;;;-81
2022/04/11 01:42:03;;;;;;;;;;;;;;;4.25;61.28223;102015.7;;;;-82
2022/04/11 01:47:04;;;;;;;;;;;;;;;4.24;61.34473;102006.4;;;;-82
2022/04/11 01:51:58;;;;;;;;;;;;;;;4.21;61.12305;102001.3;;;;-82
2022/04/11 01:56:56;;;;;;;;;;;;;;;4.2;61.33984;102000.4;;;;-82
2022/04/11 02:01:57;;;;;;;;;;;;;;;4.19;61.29492;102005.7;;;;-82
2022/04/11 02:06:56;;;;;;;;;;;;;;;4.18;61.69922;102010.1;;;;-82
2022/04/11 02:11:23;;;;;;;2.4;1;;;;;;;;;;;;;-81
2022/04/11 02:12:10;;;;;;;;;;;;;;;4.19;61.48145;101996.4;;;;-82
2022/04/11 02:16:56;;;;;;;;;;;;;;;4.2;61.50391;102001.2;;;;-81
2022/04/11 02:21:55;;;;;;;;;;;;;;;4.22;61.78125;101998.4;;;;-80
2022/04/11 02:26:57;;;;;;;;;;;;;;;4.21;61.81348;101993.6;;;;-83
2022/04/11 02:32:00;;;;;;;;;;;;;;;4.22;61.49609;101996.9;;;;-82
2022/04/11 02:36:57;;;;;;;;;;;;;;;4.26;61.64355;101996.4;;;;-82
2022/04/11 02:41:38;;;;;;;3.9;1.5;;;;;;;;;;;;;-82
2022/04/11 02:41:59;;;;;;;;;;;;;;;4.25;62.03809;101996;;;;-82
2022/04/11 02:46:58;;;;;;;;;;;;;;;4.25;62.0166;101988.8;;;;-82
2022/04/11 02:51:56;;;;;;;;;;;;;;;4.3;61.66113;101985.7;;;;-81
2022/04/11 02:56:55;;;;;;;;;;;;;;;4.3;61.5625;101985.4;;;;-82
2022/04/11 03:01:56;;;;;;;;;;;;;;;4.32;61.28027;101979.8;;;;-80
2022/04/11 03:06:58;;;;;;;;;;;;;;;4.32;61.49902;101976.8;;;;-80
2022/04/11 03:11:23;;;;;;;3;1.3;;;;;;;;;;;;;-83
2022/04/11 03:11:58;;;;;;;;;;;;;;;4.34;61.41602;101976;;;;-81
2022/04/11 03:16:58;;;;;;;;;;;;;;;4.38;61.21191;101970.8;;;;-82
2022/04/11 03:21:59;;;;;;;;;;;;;;;4.34;61.28223;101965;;;;-81
2022/04/11 03:26:56;;;;;;;;;;;;;;;4.36;61.39453;101966.6;;;;-81
2022/04/11 03:32:00;;;;;;;;;;;;;;;4.36;61.2959;101964.7;;;;-82
2022/04/11 03:37:08;;;;;;;;;;;;;;;4.38;61.31152;101964;;;;-82
2022/04/11 03:41:25;;;;;;;3.1;1.5;;;;;;;;;;;;;-82
2022/04/11 03:42:07;;;;;;;;;;;;;;;4.41;61.27148;101960.1;;;;-82
2022/04/11 03:46:56;;;;;;;;;;;;;;;4.44;61.26367;101961.3;;;;-82
2022/04/11 03:51:59;;;;;;;;;;;;;;;4.46;61.17871;101961;;;;-83
2022/04/11 03:57:01;;;;;;;;;;;;;;;4.5;61.22949;101959.7;;;;-82
2022/04/11 04:01:59;;;;;;;;;;;;;;;4.52;61.11133;101959.4;;;;-82
2022/04/11 04:06:58;;;;;;;;;;;;;;;4.57;61.17285;101954;;;;-81
2022/04/11 04:11:24;;;;;;;4.2;1.7;;;;;;;;;;;;;-82
2022/04/11 04:17:01;;;;;;;;;;;;;;;4.68;61.19922;101946.5;;;;-82
2022/04/11 04:21:56;;;;;;;;;;;;;;;4.66;61.26367;101942.8;;;;-81
2022/04/11 04:27:01;;;;;;;;;;;;;;;4.67;61.27539;101935.6;;;;-80
2022/04/11 04:32:09;;;;;;;;;;;;;;;4.7;61.24707;101938.7;;;;-82
2022/04/11 04:36:59;;;;;;;;;;;;;;;4.73;61.25098;101938.9;;;;-83
2022/04/11 04:41:27;;;;;;;4.4;2.1;;;;;;;;;;;;;-82
2022/04/11 04:41:59;;;;;;;;;;;;;;;4.76;61.27637;101939;;;;-80
2022/04/11 04:47:00;;;;;;;;;;;;;;;4.76;61.47363;101939.5;;;;-81
2022/04/11 04:51:57;;;;;;;;;;;;;;;4.79;61.34766;101937.9;;;;-82
2022/04/11 04:57:03;;;;;;;;;;;;;;;4.82;61.30762;101934.2;;;;-80
2022/04/11 05:01:57;;;;;;;;;;;;;;;4.84;61.35352;101933.1;;;;-81
2022/04/11 05:06:56;;;;;;;;;;;;;;;4.86;61.47754;101931.6;;;;-81
2022/04/11 05:11:26;;;;;;;5.5;2.3;;;;;;;;;;;;;-82
2022/04/11 05:12:04;;;;;;;;;;;;;;;4.86;61.7959;101932;;;;-81
2022/04/11 05:17:11;;;;;;;;;;;;;;;4.87;61.81934;101929.1;;;;-81
2022/04/11 05:26:19;;;;;;;;;;;;;;;4.89;61.96582;101934.3;;;;-81
2022/04/11 05:31:14;;;;;;;;;;;;;;;4.92;62.33203;101934;;;;-81
2022/04/11 05:36:19;;;;;;;;;;;;;;;;;;;;;
2022/04/11 05:41:16;;;;;;;;;;;;;;;5.01;62.26855;101927.9;;;;-81
2022/04/11 05:41:35;;;;;;;6.3;3;;;;;;;;;;;;;-81
2022/04/11 05:46:14;;;;;;;;;;;;;;;5.1;62.19336;101927;;;;-81
2022/04/11 05:58:27;;;;;;;;;;;;;;;5.33;61.78711;101938.5;;;;-81
2022/04/11 06:03:09;;;;;;;;;;;;;;;5.42;61.82129;101939.1;;;;-81
2022/04/11 06:11:26;;;;;;;6.3;3.1;;;;;;;;;;;;;-80
2022/04/11 06:13:10;;;;;;;;;;;;;;;5.72;61.65625;101951;;;;-80
2022/04/11 06:18:20;;;;;;;;;;;;;;;5.84;61.62891;101950.7;;;;-80
2022/04/11 06:21:58;;;;;;;;;;;;;;;5.98;62.08887;101947.7;;;;-81
2022/04/11 06:33:39;;;;;;;;;;;;;;;6.37;61.58398;101947;;;;-82
2022/04/11 06:53:09;;;;;;;;;;;;;;;6.48;60.71777;101949.2;;;;-80
2022/04/11 07:04:59;;;;;;;;;;;;;;;7.24;60.92383;101942.2;;;;-81
2022/04/11 07:10:06;;;;;;;;;;;;;;;7.74;59.9873;101940.1;;;;-82
2022/04/11 07:11:56;;;;;;;11.5;4.9;;;;;;;;;;;;;-78
2022/04/11 07:15:00;;;;;;;;;;;;;;;8.16;59.43848;101943.3;;;;-82
2022/04/11 07:25:15;;;;;;;;;;;;;;;8.6;58.47656;101922.5;;;;-80
2022/04/11 07:30:07;;;;;;;;;;;;;;;8.88;58.18164;101916.9;;;;-81
2022/04/11 07:35:10;;;;;;;;;;;;;;;9.32;57.55176;101914.5;;;;-80
2022/04/11 07:40:15;;;;;;;;;;;;;;;;;;;;;
2022/04/11 07:41:27;;;;;;;9.3;5.1;;;;;;;;;;;;;-81
2022/04/11 07:44:56;;;;;;;;;;;;;;;10.26;56.19629;101904;;;;-77
2022/04/11 07:54:35;;;;;;;;;;;;;;;11.23;55.21582;101897.8;;;;-81
2022/04/11 07:59:48;;;;;;;;;;;;;;;11.61;54.81738;101899.5;;;;-81
2022/04/11 08:04:49;;;;;;;;;;;;;;;11.99;54.22754;101899.2;;;;-80
2022/04/11 08:09:35;;;;;;;;;;;;;;;12.31;53.49414;101896.3;;;;-80
2022/04/11 08:11:31;;;;;;;9.3;5.2;;;;;;;;;;;;;-81
2022/04/11 08:14:40;;;;;;;;;;;;;;;12.58;53.16797;101894.9;;;;-81
2022/04/11 08:50:07;;;;;;;;;;;;;;;14.91;50.99512;101869.2;;;;-82
2022/04/11 09:41:17;;;;;;;;;;;;;;;13.86;44.36719;101856.2;;;;-83
2022/04/11 09:41:36;;;;;;;12.4;6.9;;;;;;;;;;;;;-81
2022/04/11 10:08:41;;;;;;;;;;;;;;;17.16;46.3125;101834.9;;;;-81
2022/04/11 10:16:42;;;;;;;;;;;;;;;17.72;48.43848;101828;;;;-83
2022/04/11 10:24:10;;;;;;;;;;;;;;;18.12;49.28906;101825.3;;;;-80
2022/04/11 10:29:10;;;;;;;;;;;;;;;18.49;49.18262;101824.1;;;;-82
2022/04/11 11:08:09;;;;;;;;;;;;;;;20.36;50.26855;101773.2;;;;-85
2022/04/11 11:28:14;;;;;;;;;;;;;;;20.81;47.69043;101743.4;;;;-82
2022/04/11 11:33:20;;;;;;;;;;;;;;;21.05;47.54297;101731.7;;;;-83
2022/04/11 11:41:29;;;;;;;;;;;;;;;21.23;48.25977;101718.6;;;;-82
2022/04/11 11:41:55;;;;;;;10.4;5.3;;;;;;;;;;;;;-82
2022/04/11 11:51:24;;;;;;;;;;;;;;;21.38;48.19727;101701.8;;;;-83
2022/04/11 12:06:31;;;;;;;;;;;;;;;21.82;47.74023;101692.9;;;;-82
2022/04/11 12:16:57;;;;;;;;;;;;;;;21.88;48.58398;101685.8;;;;-82
2022/04/11 12:39:48;;;;;;;;;;;;;;;21.88;48.79004;101657.6;;;;-80
2022/04/11 12:44:43;;;;;;;;;;;;;;;21.49;39.5625;101653.9;;;;-78
2022/04/11 12:49:49;;;;;;;;;;;;;;;17.85;37.62109;101654.2;;;;-78
2022/04/11 12:54:45;;;;;;;;;;;;;;;17.25;38.9707;101654;;;;-77
2022/04/11 12:59:38;;;;;;;;;;;;;;;16.31;38.93262;101647.6;;;;-76
2022/04/11 13:04:37;;;;;;;;;;;;;;;17.54;44.52246;101657.5;;;;-76
2022/04/11 13:09:37;;;;;;;;;;;;;;;17.98;38.51074;101652.3;;;;-75
2022/04/11 13:11:51;;;;;;;19.7;9.5;;;;;;;;;;;;;-75
2022/04/11 13:14:40;;;;;;;;;;;;;;;16.86;38.49316;101646.5;;;;-76
2022/04/11 13:22:44;;;;;;;9.8;5.4;;;;;;;;;;;;;-53
2022/04/11 13:28:32;;;;;;;;;;;;;;;19.65;36.48145;101626.7;;;;-55
2022/04/11 13:34:22;;;;;;;14;8.5;;;;;;;;;;;;;-72
2022/04/11 13:37:53;;;;;;;;;;;;;;;19.21;33.87305;101604.2;;;;-71
2022/04/11 13:42:54;;;;;;;;;;;;;;;18.67;33.8418;101594.5;;;;-74
2022/04/11 13:47:53;;;;;;;;;;;;;;;18.38;33.4209;101589.6;;;;-72
2022/04/11 13:52:53;;;;;;;;;;;;;;;17.93;34.00391;101576.2;;;;-72
2022/04/11 13:57:53;;;;;;;;;;;;;;;17.97;33.78906;101567.7;;;;-73
2022/04/11 14:02:53;;;;;;;;;;;;;;;17.96;34.02734;101557.2;;;;-73
2022/04/11 14:04:25;;;;;;;13.5;7.3;;;;;;;;;;;;;-72
2022/04/11 14:07:53;;;;;;;;;;;;;;;17.85;33.23242;101540.4;;;;-72
2022/04/11 14:12:54;;;;;;;;;;;;;;;17.92;33.0332;101526.9;;;;-73
2022/04/11 14:17:54;;;;;;;;;;;;;;;17.6;33.22559;101519.8;;;;-74
2022/04/11 14:22:53;;;;;;;;;;;;;;;17.42;33.40625;101503.1;;;;-71
2022/04/11 14:27:55;;;;;;;;;;;;;;;17.32;34.11621;101494;;;;-73
2022/04/11 14:32:54;;;;;;;;;;;;;;;17;34.40918;101488.8;;;;-72
2022/04/11 14:34:27;;;;;;;13.9;6.2;;;;;;;;;;;;;-73
2022/04/11 14:37:53;;;;;;;;;;;;;;;16.89;34.5498;101479.9;;;;-72
2022/04/11 14:42:56;;;;;;;;;;;;;;;17.69;35.70605;101481.3;;;;-74
2022/04/11 14:47:54;;;;;;;;;;;;;;;18.66;35.77246;101463.2;;;;-73
2022/04/11 14:52:54;;;;;;;;;;;;;;;19.11;35.2832;101460.7;;;;-74
2022/04/11 14:57:53;;;;;;;;;;;;;;;19.29;35.69824;101465.2;;;;-73
2022/04/11 15:02:54;;;;;;;;;;;;;;;19.4;36.62207;101458.9;;;;-73
2022/04/11 15:04:30;;;;;;;8.8;4.8;;;;;;;;;;;;;-72
2022/04/11 15:07:53;;;;;;;;;;;;;;;19.43;36.42969;101458.5;;;;-74
2022/04/11 15:12:53;;;;;;;;;;;;;;;19.35;37.50977;101461.9;;;;-74
2022/04/11 15:17:55;;;;;;;;;;;;;;;19.26;37.74121;101455.9;;;;-73
2022/04/11 15:22:54;;;;;;;;;;;;;;;19.12;38.29102;101454.4;;;;-73
2022/04/11 15:27:54;;;;;;;;;;;;;;;19;38.41699;101447.2;;;;-74
2022/04/11 15:32:55;;;;;;;;;;;;;;;18.93;38.62695;101446.9;;;;-73
2022/04/11 15:34:35;;;;;;;7.9;4.2;;;;;;;;;;;;;-74
2022/04/11 15:37:54;;;;;;;;;;;;;;;18.92;39.04883;101448.6;;;;-77
2022/04/11 15:42:54;;;;;;;;;;;;;;;18.85;38.96387;101454;;;;-78
2022/04/11 15:48:02;;;;;;;;;;;;;;;18.83;39.47559;101443.9;;;;-80
2022/04/11 15:52:54;;;;;;;;;;;;;;;18.9;39.7207;101440.7;;;;-79
2022/04/11 15:57:54;;;;;;;;;;;;;;;18.91;39.4707;101433.5;;;;-78
2022/04/11 16:02:54;;;;;;;;;;;;;;;18.88;39.84473;101419.3;;;;-78
2022/04/11 16:04:36;;;;;;;7.7;4.1;;;;;;;;;;;;;-79
2022/04/11 16:07:53;;;;;;;;;;;;;;;18.82;39.66797;101419.6;;;;-80
2022/04/11 16:12:53;;;;;;;;;;;;;;;18.68;39.82715;101415.6;;;;-79
2022/04/11 16:17:54;;;;;;;;;;;;;;;18.55;40.05469;101412.8;;;;-80
2022/04/11 16:22:54;;;;;;;;;;;;;;;18.48;39.99121;101410.3;;;;-79
2022/04/11 16:27:56;;;;;;;;;;;;;;;18.36;39.96875;101398.9;;;;-78
2022/04/11 16:37:54;;;;;;;;;;;;;;;18.08;40.06934;101385;;;;-80
2022/04/11 16:42:54;;;;;;;;;;;;;;;17.9;40.24707;101371.6;;;;-80
2022/04/11 16:47:54;;;;;;;;;;;;;;;17.78;40.74707;101365.9;;;;-78
2022/04/11 16:52:54;;;;;;;;;;;;;;;17.65;40.67871;101355.7;;;;-81
2022/04/11 16:57:57;;;;;;;;;;;;;;;17.48;40.84473;101358.4;;;;-80
2022/04/11 17:03:11;;;;;;;;;;;;;;;17.29;41.05469;101351.6;;;;-80
2022/04/11 17:04:44;;;;;;;8.6;5.1;;;;;;;;;;;;;-81
2022/04/11 17:07:54;;;;;;;;;;;;;;;17.13;41.29004;101360.6;;;;-80
2022/04/11 17:12:58;;;;;;;;;;;;;;;16.92;41.48633;101357.2;;;;-82
2022/04/11 17:22:57;;;;;;;;;;;;;;;16.52;41.98242;101378.1;;;;-80
2022/04/11 17:27:55;;;;;;;;;;;;;;;16.32;42.21191;101381.4;;;;-79
2022/04/11 17:32:55;;;;;;;;;;;;;;;16.12;42.60156;101385.8;;;;-80
2022/04/11 17:34:44;;;;;;;10.6;5.7;;;;;;;;;;;;;-80
2022/04/11 17:37:57;;;;;;;;;;;;;;;15.92;42.85352;101382.7;;;;-79
2022/04/11 17:42:54;;;;;;;;;;;;;;;15.72;43.12793;101385.8;;;;-79
2022/04/11 17:47:53;;;;;;;;;;;;;;;15.51;43.23242;101393;;;;-80
2022/04/11 17:52:58;;;;;;;;;;;;;;;15.32;43.69922;101388.5;;;;-78
2022/04/11 17:57:59;;;;;;;;;;;;;;;15.11;43.76953;101390.5;;;;-79
2022/04/11 18:03:01;;;;;;;;;;;;;;;14.92;44.01074;101385.2;;;;-79
2022/04/11 18:04:48;;;;;;;11.2;5.7;;;;;;;;;;;;;-79
2022/04/11 18:07:56;;;;;;;;;;;;;;;14.75;44.19629;101376;;;;-79
2022/04/11 18:15:53;;;;;;;;;;;;;;;14.45;44.52734;101383;;;;-79
2022/04/11 18:20:52;;;;;;;;;;;;;;;14.26;44.76758;101388.4;;;;-79
2022/04/11 18:25:53;;;;;;;;;;;;;;;14.06;44.79199;101397.4;;;;-80
2022/04/11 18:35:53;;;;;;;;;;;;;;;13.75;45.35742;101393.8;;;;-78
2022/04/11 18:40:56;;;;;;;;;;;;;;;13.58;45.64453;101393.1;;;;-79
2022/04/11 18:46:16;;;;;;;;;;;;;;;13.4;45.93945;101384.6;;;;-79
2022/04/11 18:50:58;;;;;;;;;;;;;;;13.25;46.17188;101392.4;;;;-77
2022/04/11 19:05:00;;;;;;;10.4;5.9;;;;;;;;;;;;;-79
2022/04/11 19:05:53;;;;;;;;;;;;;;;12.77;46.65039;101405.9;;;;-80
2022/04/11 19:10:57;;;;;;;;;;;;;;;12.63;46.85938;101414.3;;;;-78
2022/04/11 19:15:55;;;;;;;;;;;;;;;12.48;47.30371;101412.1;;;;-78
2022/04/11 19:21:05;;;;;;;;;;;;;;;12.36;47.4707;101412.3;;;;-79
2022/04/11 19:25:54;;;;;;;;;;;;;;;12.24;47.53613;101416.2;;;;-79
2022/04/11 19:34:52;;;;;;;12.2;6.1;;;;;;;;;;;;;-78
2022/04/11 19:35:58;;;;;;;;;;;;;;;12.02;48.25195;101409.9;;;;-79
2022/04/11 19:40:54;;;;;;;;;;;;;;;11.91;48.50879;101409.5;;;;-80
2022/04/11 19:45:56;;;;;;;;;;;;;;;11.81;48.60742;101408.3;;;;-80
2022/04/11 19:51:05;;;;;;;;;;;;;;;11.71;49.0127;101409.3;;;;-79
2022/04/11 20:00:59;;;;;;;;;;;;;;;11.53;49.41699;101410.7;;;;-78
2022/04/11 20:04:54;;;;;;;11.9;5.9;;;;;;;;;;;;;-77
2022/04/11 20:05:52;;;;;;;;;;;;;;;11.44;49.74219;101401.2;;;;-78
2022/04/11 20:10:52;;;;;;;;;;;;;;;11.35;49.88965;101395.6;;;;-80
2022/04/11 20:15:57;;;;;;;;;;;;;;;11.28;50.13867;101403.5;;;;-79
2022/04/11 20:20:59;;;;;;;;;;;;;;;11.2;50.19727;101402.7;;;;-80
2022/04/11 20:26:13;;;;;;;;;;;;;;;11.12;50.34375;101402.1;;;;-78
2022/04/11 20:35:14;;;;;;;11.1;6;;;;;;;;;;;;;-78
2022/04/11 20:35:54;;;;;;;;;;;;;;;11;50.69922;101394;;;;-78
2022/04/11 20:41:05;;;;;;;;;;;;;;;10.93;50.73438;101383.9;;;;-79
2022/04/11 20:45:57;;;;;;;;;;;;;;;10.85;50.86035;101374.6;;;;-78
2022/04/11 20:50:56;;;;;;;;;;;;;;;10.77;51.01758;101374.5;;;;-78
2022/04/11 21:00:59;;;;;;;;;;;;;;;10.63;51.21387;101382.8;;;;-79
2022/04/11 21:05:05;;;;;;;11.9;5.7;;;;;;;;;;;;;-78
2022/04/11 21:05:39;;;;;;;;;;;;;;;10.57;51.19629;101378.1;;;;-79
2022/04/11 21:15:51;;;;;;;;;;;;;;;10.44;51.38086;101372.1;;;;-78
2022/04/11 21:20:59;;;;;;;;;;;;;;;10.39;51.45313;101359.1;;;;-77
2022/04/11 21:25:50;;;;;;;;;;;;;;;10.35;51.52637;101357.3;;;;-79
2022/04/11 21:30:51;;;;;;;;;;;;;;;10.3;51.4209;101350;;;;-78
2022/04/11 21:35:07;;;;;;;10.6;5.5;;;;;;;;;;;;;-77
2022/04/11 21:35:47;;;;;;;;;;;;;;;10.28;51.5957;101342.3;;;;-77
2022/04/11 22:34:59;;;;;;;11.6;5.5;;;;;;;;;;;;;-79
2022/04/11 22:35:46;;;;;;;;;;;;;;;9.59;52.87305;101330.7;;;;-78
2022/04/11 22:40:53;;;;;;;;;;;;;;;9.51;52.99609;101321.7;;;;-78
2022/04/11 22:45:53;;;;;;;;;;;;;;;9.43;53.30859;101312.8;;;;-78
2022/04/11 22:50:46;;;;;;;;;;;;;;;9.33;53.45215;101317.4;;;;-78
2022/04/11 22:55:54;;;;;;;;;;;;;;;9.25;53.66504;101315;;;;-77
2022/04/11 23:00:46;;;;;;;;;;;;;;;9.17;53.83301;101311.6;;;;-77
2022/04/11 23:04:59;;;;;;;11.1;5.9;;;;;;;;;;;;;-78
2022/04/11 23:05:46;;;;;;;;;;;;;;;9.08;54.02246;101302.9;;;;-77
2022/04/11 23:10:46;;;;;;;;;;;;;;;9.02;54.20313;101297.9;;;;-79
2022/04/11 23:15:47;;;;;;;;;;;;;;;8.95;54.37305;101295.6;;;;-78
2022/04/11 23:20:45;;;;;;;;;;;;;;;8.87;54.67285;101285.2;;;;-80
2022/04/11 23:25:47;;;;;;;;;;;;;;;8.8;54.75391;101275.8;;;;-78
2022/04/11 23:30:49;;;;;;;;;;;;;;;8.74;54.91309;101275.8;;;;-77
2022/04/11 23:35:00;;;;;;;12.4;6;;;;;;;;;;;;;-79
2022/04/11 23:35:49;;;;;;;;;;;;;;;8.69;55.08301;101265.6;;;;-78
2022/04/11 23:45:46;;;;;;;;;;;;;;;8.58;55.50195;101262.3;;;;-78
2022/04/11 23:50:45;;;;;;;;;;;;;;;8.54;55.48633;101259.5;;;;-78
2022/04/11 23:55:45;;;;;;;;;;;;;;;8.5;55.80371;101248.6;;;;-77
